createdAt,value
2022-10-01T00:01:17.125Z,100.00
2022-10-01T00:03:45.148Z,100.00
2022-10-01T00:06:16.726Z,100.00
2022-10-01T00:08:49.146Z,100.00
2022-10-01T00:11:22.032Z,100.00
2022-10-01T00:13:49.947Z,100.00
2022-10-01T00:16:20.411Z,100.00
2022-10-01T00:18:48.642Z,100.00
2022-10-01T00:21:19.070Z,100.00
2022-10-01T00:23:46.524Z,100.00
2022-10-01T00:26:21.592Z,100.00
2022-10-01T00:28:52.942Z,100.00
2022-10-01T00:31:19.786Z,100.00
2022-10-01T00:33:47.211Z,100.00
2022-10-01T00:36:14.129Z,100.00
2022-10-01T00:38:41.248Z,100.00
2022-10-01T00:41:10.023Z,100.00
2022-10-01T00:43:42.742Z,100.00
2022-10-01T00:46:21.299Z,100.00
2022-10-01T00:49:03.968Z,100.00
2022-10-01T00:51:35.650Z,100.00
2022-10-01T00:54:10.483Z,100.00
2022-10-01T00:56:38.360Z,100.00
2022-10-01T00:59:07.369Z,100.00
2022-10-01T01:01:37.641Z,100.00
2022-10-01T01:04:16.610Z,100.00
2022-10-01T01:06:57.937Z,100.00
2022-10-01T01:09:30.351Z,100.00
2022-10-01T01:12:06.087Z,100.00
2022-10-01T01:14:38.680Z,100.00
2022-10-01T01:17:12.915Z,100.00
2022-10-01T01:19:54.724Z,100.00
2022-10-01T01:22:27.007Z,100.00
2022-10-01T01:25:06.508Z,100.00
2022-10-01T01:27:41.083Z,100.00
2022-10-01T01:30:11.710Z,100.00
2022-10-01T01:33:03.311Z,100.00
2022-10-01T01:35:49.570Z,100.00
2022-10-01T01:38:22.089Z,100.00
2022-10-01T01:40:51.711Z,100.00
2022-10-01T01:43:24.700Z,100.00
2022-10-01T01:45:55.283Z,100.00
2022-10-01T01:48:26.960Z,100.00
2022-10-01T01:51:08.709Z,100.00
2022-10-01T01:53:35.852Z,100.00
2022-10-01T01:56:02.815Z,100.00
2022-10-01T01:58:32.363Z,100.00
2022-10-01T02:00:59.172Z,100.00
2022-10-01T02:03:29.320Z,100.00
2022-10-01T02:06:17.212Z,100.00
2022-10-01T02:08:52.258Z,100.00
2022-10-01T02:11:28.580Z,100.00
2022-10-01T02:14:15.914Z,100.00
2022-10-01T02:17:04.460Z,100.00
2022-10-01T02:19:41.301Z,100.00
2022-10-01T02:22:36.931Z,100.00
2022-10-01T02:25:07.003Z,100.00
2022-10-01T02:27:40.610Z,100.00
2022-10-01T02:30:10.003Z,100.00
2022-10-01T02:32:44.168Z,100.00
2022-10-01T02:35:15.300Z,100.00
2022-10-01T02:37:44.952Z,100.00
2022-10-01T02:40:16.447Z,100.00
2022-10-01T02:42:50.953Z,100.00
2022-10-01T02:45:22.937Z,100.00
2022-10-01T02:47:57.595Z,100.00
2022-10-01T02:50:31.279Z,100.00
2022-10-01T02:53:06.427Z,100.00
2022-10-01T02:55:37.875Z,100.00
2022-10-01T02:58:05.337Z,100.00
2022-10-01T03:00:32.336Z,100.00
2022-10-01T03:02:59.404Z,100.00
2022-10-01T03:05:26.389Z,100.00
2022-10-01T03:07:53.212Z,100.00
2022-10-01T03:10:20.362Z,100.00
2022-10-01T03:12:47.281Z,100.00
2022-10-01T03:15:16.603Z,100.00
2022-10-01T03:17:43.275Z,100.00
2022-10-01T03:20:10.534Z,100.00
2022-10-01T03:22:37.392Z,100.00
2022-10-01T03:25:04.862Z,100.00
2022-10-01T03:27:31.648Z,100.00
2022-10-01T03:29:58.516Z,100.00
2022-10-01T03:32:25.371Z,100.00
2022-10-01T03:34:52.192Z,100.00
2022-10-01T03:37:19.030Z,100.00
2022-10-01T03:39:45.818Z,100.00
2022-10-01T03:42:12.622Z,100.00
2022-10-01T03:44:39.460Z,100.00
2022-10-01T03:47:06.270Z,100.00
2022-10-01T03:49:34.464Z,100.00
2022-10-01T03:52:02.536Z,100.00
2022-10-01T03:54:31.541Z,100.00
2022-10-01T03:56:58.715Z,100.00
2022-10-01T03:59:27.309Z,100.00
2022-10-01T04:01:54.894Z,100.00
2022-10-01T04:04:21.760Z,100.00
2022-10-01T04:06:48.603Z,100.00
2022-10-01T04:09:15.425Z,100.00
2022-10-01T04:11:42.193Z,100.00
2022-10-01T04:14:09.214Z,100.00
2022-10-01T04:16:36.365Z,100.00
2022-10-01T04:19:04.876Z,100.00
2022-10-01T04:21:32.143Z,100.00
2022-10-01T04:23:59.836Z,100.00
2022-10-01T04:26:27.227Z,100.00
2022-10-01T04:28:54.067Z,100.00
2022-10-01T04:31:27.043Z,100.00
2022-10-01T04:33:55.933Z,100.00
2022-10-01T04:36:24.290Z,100.00
2022-10-01T04:38:54.691Z,100.00
2022-10-01T04:41:23.778Z,100.00
2022-10-01T04:43:50.626Z,100.00
2022-10-01T04:46:17.735Z,100.00
2022-10-01T04:48:44.605Z,100.00
2022-10-01T04:51:11.353Z,100.00
2022-10-01T04:53:38.959Z,100.00
2022-10-01T04:56:05.964Z,100.00
2022-10-01T04:58:33.065Z,100.00
2022-10-01T05:01:02.211Z,100.00
2022-10-01T05:03:29.271Z,100.00
2022-10-01T05:05:56.065Z,100.00
2022-10-01T05:08:23.311Z,100.00
2022-10-01T05:10:50.073Z,100.00
2022-10-01T05:13:16.832Z,100.00
2022-10-01T05:15:44.484Z,100.00
2022-10-01T05:18:11.339Z,100.00
2022-10-01T05:20:38.529Z,100.00
2022-10-01T05:23:05.364Z,100.00
2022-10-01T05:25:32.210Z,100.00
2022-10-01T05:28:05.475Z,100.00
2022-10-01T05:30:33.825Z,100.00
2022-10-01T05:33:03.524Z,100.00
2022-10-01T05:35:31.225Z,100.00
2022-10-01T05:38:00.192Z,100.00
2022-10-01T05:40:28.738Z,100.00
2022-10-01T05:43:00.319Z,100.00
2022-10-01T05:45:28.538Z,100.00
2022-10-01T05:48:00.849Z,100.00
2022-10-01T05:50:31.735Z,100.00
2022-10-01T05:52:59.799Z,100.00
2022-10-01T05:55:27.260Z,100.00
2022-10-01T05:57:55.668Z,100.00
2022-10-01T06:00:23.120Z,100.00
2022-10-01T06:02:51.853Z,100.00
2022-10-01T06:05:19.715Z,100.00
2022-10-01T06:07:46.691Z,100.00
2022-10-01T06:10:13.924Z,99.92
2022-10-01T06:12:41.090Z,100.00
2022-10-01T06:15:08.308Z,100.00
2022-10-01T06:17:35.255Z,97.37
2022-10-01T06:20:02.271Z,95.63
2022-10-01T06:22:29.112Z,93.81
2022-10-01T06:24:56.787Z,91.49
2022-10-01T06:27:23.642Z,90.68
2022-10-01T06:29:50.417Z,89.89
2022-10-01T06:32:19.862Z,89.31
2022-10-01T06:34:46.745Z,87.83
2022-10-01T06:37:13.750Z,87.53
2022-10-01T06:39:40.693Z,87.90
2022-10-01T06:42:07.474Z,88.29
2022-10-01T06:44:34.296Z,86.66
2022-10-01T06:47:01.052Z,86.89
2022-10-01T06:49:27.952Z,85.46
2022-10-01T06:52:13.134Z,85.27
2022-10-01T06:54:40.003Z,85.56
2022-10-01T06:57:07.218Z,84.33
2022-10-01T06:59:36.519Z,83.68
2022-10-01T07:02:05.001Z,83.33
2022-10-01T07:04:31.821Z,82.10
2022-10-01T07:06:58.592Z,83.21
2022-10-01T07:09:25.762Z,80.82
2022-10-01T07:11:57.486Z,80.66
2022-10-01T07:14:24.252Z,79.08
2022-10-01T07:16:51.096Z,79.23
2022-10-01T07:19:17.932Z,79.56
2022-10-01T07:21:47.022Z,79.04
2022-10-01T07:24:14.352Z,76.61
2022-10-01T07:26:41.242Z,76.88
2022-10-01T07:29:09.861Z,75.50
2022-10-01T07:31:37.212Z,75.85
2022-10-01T07:34:04.432Z,74.62
2022-10-01T07:36:31.254Z,72.94
2022-10-01T07:38:59.272Z,72.14
2022-10-01T07:41:26.180Z,70.98
2022-10-01T07:43:53.082Z,70.82
2022-10-01T07:46:19.908Z,70.26
2022-10-01T07:48:49.361Z,68.36
2022-10-01T07:51:16.169Z,66.33
2022-10-01T07:53:43.007Z,65.41
2022-10-01T07:56:09.793Z,64.50
2022-10-01T07:58:36.678Z,65.10
2022-10-01T08:01:04.457Z,66.32
2022-10-01T08:03:31.253Z,65.85
2022-10-01T08:05:58.080Z,66.09
2022-10-01T08:08:24.939Z,66.57
2022-10-01T08:10:51.776Z,64.65
2022-10-01T08:13:19.067Z,65.82
2022-10-01T08:15:50.656Z,65.12
2022-10-01T08:18:17.656Z,65.05
2022-10-01T08:20:44.588Z,65.66
2022-10-01T08:23:14.872Z,66.28
2022-10-01T08:25:42.876Z,64.41
2022-10-01T08:28:11.419Z,65.44
2022-10-01T08:30:40.077Z,66.09
2022-10-01T08:33:07.793Z,64.16
2022-10-01T08:35:34.655Z,65.19
2022-10-01T08:38:02.568Z,66.31
2022-10-01T08:40:30.623Z,64.44
2022-10-01T08:43:06.470Z,65.94
2022-10-01T08:45:39.109Z,66.05
2022-10-01T08:48:07.623Z,66.61
2022-10-01T08:50:46.718Z,65.76
2022-10-01T08:53:31.593Z,66.27
2022-10-01T08:56:01.072Z,67.84
2022-10-01T08:58:45.329Z,65.67
2022-10-01T09:01:12.652Z,66.18
2022-10-01T09:03:40.669Z,68.26
2022-10-01T09:06:21.077Z,67.15
2022-10-01T09:09:05.789Z,68.79
2022-10-01T09:11:59.429Z,69.11
2022-10-01T09:14:37.730Z,67.87
2022-10-01T09:17:43.352Z,68.46
2022-10-01T09:20:23.701Z,68.14
2022-10-01T09:23:15.528Z,69.10
2022-10-01T09:25:46.040Z,69.95
2022-10-01T09:28:21.038Z,71.88
2022-10-01T09:30:56.945Z,70.63
2022-10-01T09:33:30.557Z,73.01
2022-10-01T09:36:28.382Z,73.76
2022-10-01T09:39:31.571Z,74.20
2022-10-01T09:41:59.907Z,72.54
2022-10-01T09:44:32.732Z,71.80
2022-10-01T09:46:59.769Z,72.39
2022-10-01T09:49:39.702Z,73.38
2022-10-01T09:52:15.278Z,73.66
2022-10-01T09:54:56.794Z,73.82
2022-10-01T09:57:28.976Z,74.39
2022-10-01T10:00:18.112Z,75.54
2022-10-01T10:02:49.443Z,75.21
2022-10-01T10:05:39.035Z,75.80
2022-10-01T10:08:30.006Z,74.60
2022-10-01T10:11:06.778Z,74.65
2022-10-01T10:13:40.359Z,74.31
2022-10-01T10:16:15.752Z,73.58
2022-10-01T10:18:42.925Z,75.42
2022-10-01T10:21:16.567Z,76.46
2022-10-01T10:23:55.102Z,77.52
2022-10-01T10:26:51.613Z,78.88
2022-10-01T10:29:31.594Z,80.12
2022-10-01T10:32:02.673Z,81.94
2022-10-01T10:34:47.498Z,82.84
2022-10-01T10:37:23.624Z,84.47
2022-10-01T10:39:52.543Z,84.17
2022-10-01T10:42:20.006Z,84.13
2022-10-01T10:44:50.078Z,86.28
2022-10-01T10:47:20.782Z,85.06
2022-10-01T10:50:06.073Z,87.62
2022-10-01T10:52:36.510Z,89.10
2022-10-01T10:55:22.583Z,88.57
2022-10-01T10:57:50.842Z,89.94
2022-10-01T11:00:23.953Z,90.06
2022-10-01T11:02:53.941Z,91.62
2022-10-01T11:05:23.311Z,90.13
2022-10-01T11:07:54.726Z,89.56
2022-10-01T11:10:46.471Z,89.81
2022-10-01T11:13:34.339Z,91.35
2022-10-01T11:16:10.442Z,90.01
2022-10-01T11:18:56.164Z,91.60
2022-10-01T11:21:48.017Z,91.88
2022-10-01T11:24:33.917Z,91.15
2022-10-01T11:27:12.267Z,91.85
2022-10-01T11:30:05.287Z,92.37
2022-10-01T11:33:03.677Z,92.22
2022-10-01T11:35:50.389Z,92.12
2022-10-01T11:39:01.721Z,92.90
2022-10-01T11:41:40.023Z,92.21
2022-10-01T11:44:30.618Z,94.61
2022-10-01T11:46:59.188Z,93.88
2022-10-01T11:49:43.949Z,94.85
2022-10-01T11:52:19.652Z,96.63
2022-10-01T11:55:38.931Z,95.95
2022-10-01T11:58:48.116Z,95.59
2022-10-01T12:01:23.999Z,96.06
2022-10-01T12:03:53.515Z,95.30
2022-10-01T12:06:34.122Z,95.69
2022-10-01T12:09:08.397Z,95.16
2022-10-01T12:11:53.363Z,94.39
2022-10-01T12:14:29.792Z,93.07
2022-10-01T12:17:18.647Z,94.08
2022-10-01T12:19:50.590Z,93.17
2022-10-01T12:22:25.230Z,92.92
2022-10-01T12:24:53.790Z,92.92
2022-10-01T12:27:33.513Z,92.13
2022-10-01T12:30:10.380Z,89.38
2022-10-01T12:33:20.473Z,88.59
2022-10-01T12:35:59.796Z,87.39
2022-10-01T12:39:10.457Z,87.67
2022-10-01T12:41:37.696Z,88.70
2022-10-01T12:44:16.615Z,89.95
2022-10-01T12:47:26.040Z,91.16
2022-10-01T12:50:13.055Z,92.77
2022-10-01T12:52:57.953Z,93.44
2022-10-01T12:55:49.209Z,95.01
2022-10-01T12:58:35.562Z,96.13
2022-10-01T13:01:08.425Z,99.73
2022-10-01T13:04:03.807Z,100.00
2022-10-01T13:06:48.637Z,100.00
2022-10-01T13:09:35.257Z,100.00
2022-10-01T13:12:46.252Z,100.00
2022-10-01T13:15:27.183Z,100.00
2022-10-01T13:18:29.363Z,100.00
2022-10-01T13:21:32.465Z,100.00
2022-10-01T13:24:06.070Z,100.00
2022-10-01T13:26:59.400Z,100.00
2022-10-01T13:29:42.422Z,100.00
2022-10-01T13:32:45.808Z,100.00
2022-10-01T13:35:36.108Z,100.00
2022-10-01T13:38:29.206Z,100.00
2022-10-01T13:41:17.672Z,100.00
2022-10-01T13:43:54.256Z,100.00
2022-10-01T13:46:21.534Z,100.00
2022-10-01T13:48:50.655Z,100.00
2022-10-01T13:51:17.736Z,100.00
2022-10-01T13:53:45.096Z,100.00
2022-10-01T13:56:26.226Z,100.00
2022-10-01T13:58:53.356Z,99.50
2022-10-01T14:01:23.865Z,99.61
2022-10-01T14:04:16.148Z,99.10
2022-10-01T14:06:53.552Z,95.48
2022-10-01T14:09:28.405Z,93.62
2022-10-01T14:12:38.633Z,94.36
2022-10-01T14:15:38.353Z,91.56
2022-10-01T14:18:28.674Z,88.36
2022-10-01T14:21:25.980Z,92.51
2022-10-01T14:24:05.446Z,92.12
2022-10-01T14:26:38.252Z,91.15
2022-10-01T14:29:21.341Z,92.02
2022-10-01T14:32:02.902Z,90.30
2022-10-01T14:34:32.353Z,91.49
2022-10-01T14:36:59.444Z,89.41
2022-10-01T14:39:28.871Z,85.34
2022-10-01T14:41:57.978Z,86.33
2022-10-01T14:44:30.269Z,89.23
2022-10-01T14:46:59.632Z,90.56
2022-10-01T14:49:32.437Z,88.93
2022-10-01T14:52:25.644Z,88.68
2022-10-01T14:54:52.540Z,87.43
2022-10-01T14:57:34.754Z,88.08
2022-10-01T15:00:08.741Z,90.79
2022-10-01T15:03:02.138Z,93.72
2022-10-01T15:05:34.665Z,93.74
2022-10-01T15:08:14.903Z,96.13
2022-10-01T15:11:02.244Z,98.09
2022-10-01T15:13:35.528Z,96.82
2022-10-01T15:16:03.229Z,97.23
2022-10-01T15:18:31.771Z,98.32
2022-10-01T15:21:06.533Z,98.57
2022-10-01T15:23:39.876Z,99.40
2022-10-01T15:26:11.493Z,100.00
2022-10-01T15:28:38.330Z,100.00
2022-10-01T15:31:06.844Z,100.00
2022-10-01T15:33:36.650Z,100.00
2022-10-01T15:36:06.477Z,100.00
2022-10-01T15:38:34.010Z,100.00
2022-10-01T15:41:26.946Z,100.00
2022-10-01T15:43:50.845Z,100.00
2022-10-01T15:46:29.222Z,100.00
2022-10-01T15:49:18.056Z,100.00
2022-10-01T15:52:10.745Z,100.00
2022-10-01T15:54:39.046Z,100.00
2022-10-01T15:57:06.844Z,100.00
2022-10-01T15:59:35.605Z,100.00
2022-10-01T16:02:08.854Z,100.00
2022-10-01T16:04:35.985Z,100.00
2022-10-01T16:07:02.937Z,100.00
2022-10-01T16:09:30.913Z,100.00
2022-10-01T16:12:09.952Z,100.00
2022-10-01T16:14:39.458Z,100.00
2022-10-01T16:17:18.153Z,100.00
2022-10-01T16:19:46.609Z,100.00
2022-10-01T16:22:17.326Z,100.00
2022-10-01T16:24:55.172Z,100.00
2022-10-01T16:27:23.866Z,100.00
2022-10-01T16:30:01.340Z,100.00
2022-10-01T16:32:31.775Z,100.00
2022-10-01T16:35:23.245Z,100.00
2022-10-01T16:37:52.065Z,100.00
2022-10-01T16:40:21.126Z,100.00
2022-10-01T16:42:52.001Z,100.00
2022-10-01T16:45:24.830Z,100.00
2022-10-01T16:47:52.954Z,100.00
2022-10-01T16:50:21.911Z,100.00
2022-10-01T16:52:52.697Z,100.00
2022-10-01T16:55:24.147Z,100.00
2022-10-01T16:57:52.933Z,100.00
2022-10-01T17:00:22.069Z,100.00
2022-10-01T17:02:48.883Z,100.00
2022-10-01T17:05:34.154Z,100.00
2022-10-01T17:08:01.516Z,100.00
2022-10-01T17:10:33.787Z,100.00
2022-10-01T17:13:02.158Z,100.00
2022-10-01T17:15:29.108Z,100.00
2022-10-01T17:17:57.568Z,100.00
2022-10-01T17:20:28.763Z,100.00
2022-10-01T17:22:56.844Z,100.00
2022-10-01T17:25:34.422Z,100.00
2022-10-01T17:28:03.204Z,100.00
2022-10-01T17:30:30.966Z,100.00
2022-10-01T17:33:02.386Z,100.00
2022-10-01T17:35:30.271Z,100.00
2022-10-01T17:37:57.288Z,100.00
2022-10-01T17:40:24.308Z,100.00
2022-10-01T17:42:51.112Z,100.00
2022-10-01T17:45:17.879Z,100.00
2022-10-01T17:47:46.412Z,100.00
2022-10-01T17:50:15.075Z,100.00
2022-10-01T17:52:41.944Z,100.00
2022-10-01T17:55:09.614Z,100.00
2022-10-01T17:57:36.458Z,100.00
2022-10-01T18:00:05.016Z,100.00
2022-10-01T18:02:43.271Z,100.00
2022-10-01T18:05:14.563Z,100.00
2022-10-01T18:07:42.746Z,100.00
2022-10-01T18:10:12.311Z,100.00
2022-10-01T18:12:39.301Z,100.00
2022-10-01T18:15:06.749Z,100.00
2022-10-01T18:17:36.495Z,100.00
2022-10-01T18:20:06.453Z,100.00
2022-10-01T18:22:34.742Z,100.00
2022-10-01T18:25:03.564Z,100.00
2022-10-01T18:27:31.028Z,100.00
2022-10-01T18:29:57.819Z,100.00
2022-10-01T18:32:31.445Z,100.00
2022-10-01T18:35:00.467Z,100.00
2022-10-01T18:37:37.783Z,100.00
2022-10-01T18:40:25.020Z,100.00
2022-10-01T18:42:55.231Z,100.00
2022-10-01T18:45:38.702Z,100.00
2022-10-01T18:48:25.154Z,100.00
2022-10-01T18:50:57.754Z,100.00
2022-10-01T18:53:36.501Z,100.00
2022-10-01T18:56:05.953Z,100.00
2022-10-01T18:58:42.382Z,100.00
2022-10-01T19:01:23.631Z,100.00
2022-10-01T19:04:00.270Z,100.00
2022-10-01T19:06:43.849Z,100.00
2022-10-01T19:09:36.879Z,100.00
2022-10-01T19:12:10.823Z,100.00
2022-10-01T19:15:00.894Z,100.00
2022-10-01T19:17:33.752Z,100.00
2022-10-01T19:20:11.256Z,100.00
2022-10-01T19:23:09.782Z,100.00
2022-10-01T19:25:48.842Z,100.00
2022-10-01T19:28:37.489Z,100.00
2022-10-01T19:31:36.314Z,100.00
2022-10-01T19:34:23.157Z,100.00
2022-10-01T19:36:59.992Z,100.00
2022-10-01T19:39:34.591Z,100.00
2022-10-01T19:42:07.039Z,100.00
2022-10-01T19:44:49.715Z,100.00
2022-10-01T19:47:22.305Z,100.00
2022-10-01T19:49:52.654Z,100.00
2022-10-01T19:52:22.857Z,100.00
2022-10-01T19:54:55.811Z,100.00
2022-10-01T19:57:26.491Z,100.00
2022-10-01T19:59:59.707Z,100.00
2022-10-01T20:02:46.303Z,100.00
2022-10-01T20:05:18.994Z,100.00
2022-10-01T20:07:50.251Z,100.00
2022-10-01T20:10:54.266Z,100.00
2022-10-01T20:13:33.031Z,100.00
2022-10-01T20:16:22.576Z,100.00
2022-10-01T20:19:18.992Z,100.00
2022-10-01T20:21:54.577Z,100.00
2022-10-01T20:24:49.402Z,100.00
2022-10-01T20:27:34.734Z,100.00
2022-10-01T20:30:09.136Z,100.00
2022-10-01T20:32:38.968Z,100.00
2022-10-01T20:36:01.420Z,100.00
2022-10-01T20:38:34.915Z,100.00
2022-10-01T20:41:10.289Z,100.00
2022-10-01T20:43:55.851Z,100.00
2022-10-01T20:46:45.857Z,100.00
2022-10-01T20:49:24.635Z,100.00
2022-10-01T20:52:02.334Z,100.00
2022-10-01T20:54:46.794Z,100.00
2022-10-01T20:57:27.827Z,100.00
2022-10-01T20:59:58.544Z,100.00
2022-10-01T21:02:42.792Z,100.00
2022-10-01T21:05:17.860Z,100.00
2022-10-01T21:07:59.748Z,100.00
2022-10-01T21:10:45.097Z,100.00
2022-10-01T21:13:30.153Z,100.00
2022-10-01T21:16:27.404Z,100.00
2022-10-01T21:19:17.368Z,100.00
2022-10-01T21:22:21.766Z,100.00
2022-10-01T21:25:03.573Z,100.00
2022-10-01T21:28:00.268Z,100.00
2022-10-01T21:30:37.501Z,100.00
2022-10-01T21:33:06.943Z,100.00
2022-10-01T21:35:49.286Z,100.00
2022-10-01T21:38:51.420Z,100.00
2022-10-01T21:41:21.007Z,100.00
2022-10-01T21:43:50.651Z,100.00
2022-10-01T21:46:30.718Z,100.00
2022-10-01T21:49:07.610Z,100.00
2022-10-01T21:51:52.390Z,100.00
2022-10-01T21:54:35.920Z,100.00
2022-10-01T21:57:31.341Z,100.00
2022-10-01T22:00:32.846Z,100.00
2022-10-01T22:03:11.202Z,100.00
2022-10-01T22:05:50.426Z,100.00
2022-10-01T22:08:48.313Z,100.00
2022-10-01T22:11:21.243Z,100.00
2022-10-01T22:13:58.528Z,100.00
2022-10-01T22:16:30.540Z,100.00
2022-10-01T22:19:01.625Z,100.00
2022-10-01T22:21:36.065Z,100.00
2022-10-01T22:24:10.046Z,100.00
2022-10-01T22:26:42.333Z,100.00
2022-10-01T22:29:15.251Z,100.00
2022-10-01T22:31:44.399Z,100.00
2022-10-01T22:34:17.471Z,100.00
2022-10-01T22:36:52.948Z,100.00
2022-10-01T22:39:24.251Z,100.00
2022-10-01T22:42:01.691Z,100.00
2022-10-01T22:44:29.597Z,100.00
2022-10-01T22:46:59.378Z,100.00
2022-10-01T22:49:42.624Z,100.00
2022-10-01T22:52:28.220Z,100.00
2022-10-01T22:54:54.968Z,100.00
2022-10-01T22:57:34.317Z,100.00
2022-10-01T23:00:13.467Z,100.00
2022-10-01T23:03:01.921Z,100.00
2022-10-01T23:06:05.939Z,100.00
2022-10-01T23:08:58.625Z,100.00
2022-10-01T23:11:28.931Z,100.00
2022-10-01T23:14:24.795Z,100.00
2022-10-01T23:17:07.476Z,100.00
2022-10-01T23:19:55.948Z,100.00
2022-10-01T23:22:52.138Z,100.00
2022-10-01T23:25:28.323Z,100.00
2022-10-01T23:28:19.426Z,100.00
2022-10-01T23:31:06.844Z,100.00
2022-10-01T23:34:17.832Z,100.00
2022-10-01T23:36:50.181Z,100.00
2022-10-01T23:39:25.391Z,100.00
2022-10-01T23:42:15.888Z,100.00
2022-10-01T23:45:11.789Z,100.00
2022-10-01T23:47:47.914Z,100.00
2022-10-01T23:50:29.705Z,100.00
2022-10-01T23:53:14.314Z,100.00
2022-10-01T23:56:44.887Z,100.00
2022-10-01T23:59:28.603Z,100.00
